createdAt,value
2022-09-15T00:01:14.207Z,14.90
2022-09-15T00:03:42.732Z,14.90
2022-09-15T00:06:11.482Z,14.80
2022-09-15T00:08:39.796Z,14.80
2022-09-15T00:11:20.163Z,14.80
2022-09-15T00:13:47.710Z,14.80
2022-09-15T00:16:15.998Z,14.80
2022-09-15T00:18:45.074Z,14.80
2022-09-15T00:21:18.814Z,14.80
2022-09-15T00:23:47.242Z,14.70
2022-09-15T00:26:18.919Z,14.70
2022-09-15T00:28:46.805Z,14.70
2022-09-15T00:31:17.280Z,14.70
2022-09-15T00:33:49.803Z,14.70
2022-09-15T00:36:18.483Z,14.60
2022-09-15T00:38:46.436Z,14.60
2022-09-15T00:41:16.946Z,14.60
2022-09-15T00:43:49.918Z,14.60
2022-09-15T00:46:20.899Z,14.60
2022-09-15T00:49:11.546Z,14.60
2022-09-15T00:51:48.911Z,14.60
2022-09-15T00:54:25.556Z,14.60
2022-09-15T00:56:56.234Z,14.50
2022-09-15T00:59:26.417Z,14.50
2022-09-15T01:02:23.215Z,14.50
2022-09-15T01:04:58.422Z,14.40
2022-09-15T01:07:37.914Z,14.40
2022-09-15T01:10:13.906Z,14.40
2022-09-15T01:12:42.059Z,14.40
2022-09-15T01:15:09.741Z,14.40
2022-09-15T01:17:49.099Z,14.40
2022-09-15T01:20:38.495Z,14.40
2022-09-15T01:23:31.108Z,14.40
2022-09-15T01:26:25.402Z,14.40
2022-09-15T01:29:24.128Z,14.30
2022-09-15T01:32:19.263Z,14.30
2022-09-15T01:35:02.809Z,14.30
2022-09-15T01:37:36.859Z,14.30
2022-09-15T01:40:06.685Z,14.30
2022-09-15T01:42:36.084Z,14.30
2022-09-15T01:45:17.836Z,14.30
2022-09-15T01:47:46.383Z,14.30
2022-09-15T01:50:20.575Z,14.30
2022-09-15T01:52:50.017Z,14.30
2022-09-15T01:55:26.520Z,14.30
2022-09-15T01:57:54.094Z,14.30
2022-09-15T02:00:21.694Z,14.30
2022-09-15T02:02:55.243Z,14.30
2022-09-15T02:05:32.516Z,14.30
2022-09-15T02:08:11.551Z,14.30
2022-09-15T02:10:48.579Z,14.30
2022-09-15T02:13:29.099Z,14.30
2022-09-15T02:16:00.073Z,14.30
2022-09-15T02:18:34.781Z,14.20
2022-09-15T02:21:12.730Z,14.30
2022-09-15T02:23:44.863Z,14.20
2022-09-15T02:26:17.577Z,14.20
2022-09-15T02:28:48.964Z,14.20
2022-09-15T02:31:20.929Z,14.20
2022-09-15T02:33:55.286Z,14.20
2022-09-15T02:36:26.034Z,14.20
2022-09-15T02:39:00.107Z,14.20
2022-09-15T02:41:27.782Z,14.20
2022-09-15T02:43:55.304Z,14.20
2022-09-15T02:46:23.034Z,14.20
2022-09-15T02:48:50.585Z,14.10
2022-09-15T02:51:18.638Z,14.10
2022-09-15T02:53:46.419Z,14.10
2022-09-15T02:56:15.727Z,14.20
2022-09-15T02:58:44.111Z,14.10
2022-09-15T03:01:17.162Z,14.10
2022-09-15T03:03:45.946Z,14.10
2022-09-15T03:06:16.909Z,14.10
2022-09-15T03:08:52.289Z,14.10
2022-09-15T03:11:22.967Z,14.10
2022-09-15T03:13:58.701Z,14.10
2022-09-15T03:16:27.915Z,14.10
2022-09-15T03:18:58.713Z,14.00
2022-09-15T03:21:29.511Z,14.00
2022-09-15T03:23:58.462Z,14.00
2022-09-15T03:26:26.396Z,14.00
2022-09-15T03:28:54.050Z,13.90
2022-09-15T03:31:21.664Z,13.90
2022-09-15T03:33:49.392Z,13.90
2022-09-15T03:36:17.150Z,13.90
2022-09-15T03:38:44.805Z,13.90
2022-09-15T03:41:12.728Z,13.90
2022-09-15T03:43:41.479Z,13.80
2022-09-15T03:46:11.966Z,13.80
2022-09-15T03:48:40.596Z,13.80
2022-09-15T03:51:10.615Z,13.80
2022-09-15T03:53:40.387Z,13.90
2022-09-15T03:56:26.548Z,13.90
2022-09-15T03:58:54.841Z,13.80
2022-09-15T04:01:23.530Z,13.80
2022-09-15T04:03:51.733Z,13.90
2022-09-15T04:06:20.944Z,13.80
2022-09-15T04:08:49.955Z,13.80
2022-09-15T04:11:19.178Z,13.80
2022-09-15T04:13:47.242Z,13.80
2022-09-15T04:16:17.621Z,13.80
2022-09-15T04:18:45.728Z,13.80
2022-09-15T04:21:16.174Z,13.80
2022-09-15T04:23:44.333Z,13.80
2022-09-15T04:26:26.853Z,13.70
2022-09-15T04:28:54.519Z,13.70
2022-09-15T04:31:22.203Z,13.70
2022-09-15T04:33:52.883Z,13.70
2022-09-15T04:36:23.380Z,13.70
2022-09-15T04:38:51.788Z,13.70
2022-09-15T04:41:20.567Z,13.70
2022-09-15T04:43:48.267Z,13.70
2022-09-15T04:46:16.763Z,13.60
2022-09-15T04:48:46.154Z,13.60
2022-09-15T04:51:17.738Z,13.60
2022-09-15T04:53:46.041Z,13.60
2022-09-15T04:56:16.446Z,13.60
2022-09-15T04:58:46.854Z,13.50
2022-09-15T05:01:20.034Z,13.50
2022-09-15T05:03:48.187Z,13.50
2022-09-15T05:06:18.249Z,13.40
2022-09-15T05:08:55.191Z,13.30
2022-09-15T05:11:23.762Z,13.30
2022-09-15T05:13:51.645Z,13.30
2022-09-15T05:16:21.806Z,13.20
2022-09-15T05:18:50.795Z,13.20
2022-09-15T05:21:20.614Z,13.20
2022-09-15T05:23:49.164Z,13.20
2022-09-15T05:26:19.966Z,13.20
2022-09-15T05:28:47.622Z,13.20
2022-09-15T05:31:20.480Z,13.20
2022-09-15T05:33:49.999Z,13.20
2022-09-15T05:36:20.311Z,13.20
2022-09-15T05:38:47.923Z,13.20
2022-09-15T05:41:17.910Z,13.20
2022-09-15T05:43:47.263Z,13.20
2022-09-15T05:46:15.998Z,13.20
2022-09-15T05:48:43.876Z,13.20
2022-09-15T05:51:12.167Z,13.20
2022-09-15T05:53:39.781Z,13.20
2022-09-15T05:56:10.804Z,13.20
2022-09-15T05:58:43.129Z,13.10
2022-09-15T06:01:17.578Z,13.10
2022-09-15T06:03:48.179Z,13.20
2022-09-15T06:06:16.417Z,13.20
2022-09-15T06:08:48.258Z,13.20
2022-09-15T06:11:19.514Z,13.20
2022-09-15T06:13:47.876Z,13.20
2022-09-15T06:16:24.132Z,13.20
2022-09-15T06:18:53.209Z,13.20
2022-09-15T06:21:27.000Z,13.30
2022-09-15T06:23:56.270Z,13.30
2022-09-15T06:26:24.827Z,13.30
2022-09-15T06:28:58.032Z,13.40
2022-09-15T06:31:28.509Z,13.40
2022-09-15T06:33:57.827Z,13.40
2022-09-15T06:36:27.527Z,13.40
2022-09-15T06:38:55.519Z,13.40
2022-09-15T06:41:23.640Z,13.50
2022-09-15T06:43:51.517Z,13.50
2022-09-15T06:46:21.549Z,13.50
2022-09-15T06:48:51.286Z,13.60
2022-09-15T06:51:22.376Z,13.60
2022-09-15T06:53:50.691Z,13.70
2022-09-15T06:56:21.291Z,13.70
2022-09-15T06:58:49.494Z,13.80
2022-09-15T07:01:22.850Z,13.80
2022-09-15T07:03:51.078Z,13.90
2022-09-15T07:06:19.195Z,14.00
2022-09-15T07:08:47.324Z,14.00
2022-09-15T07:11:15.711Z,14.00
2022-09-15T07:13:43.275Z,14.10
2022-09-15T07:16:12.929Z,14.20
2022-09-15T07:18:43.205Z,14.20
2022-09-15T07:21:14.064Z,14.20
2022-09-15T07:23:42.082Z,14.30
2022-09-15T07:26:14.196Z,14.40
2022-09-15T07:28:44.299Z,14.40
2022-09-15T07:31:14.768Z,14.50
2022-09-15T07:33:42.617Z,14.50
2022-09-15T07:36:10.830Z,14.60
2022-09-15T07:38:43.931Z,14.70
2022-09-15T07:41:14.656Z,14.80
2022-09-15T07:43:46.383Z,14.90
2022-09-15T07:46:14.476Z,14.90
2022-09-15T07:48:47.755Z,15.00
2022-09-15T07:51:15.915Z,15.00
2022-09-15T07:53:44.949Z,15.10
2022-09-15T07:56:13.016Z,15.20
2022-09-15T07:58:40.808Z,15.20
2022-09-15T08:01:14.635Z,15.20
2022-09-15T08:03:48.905Z,15.30
2022-09-15T08:06:19.762Z,15.40
2022-09-15T08:08:47.433Z,15.40
2022-09-15T08:11:19.188Z,15.30
2022-09-15T08:13:49.574Z,15.30
2022-09-15T08:16:20.796Z,15.30
2022-09-15T08:18:51.750Z,15.30
2022-09-15T08:21:21.034Z,15.50
2022-09-15T08:23:53.317Z,15.90
2022-09-15T08:26:20.856Z,16.30
2022-09-15T08:28:49.187Z,16.70
2022-09-15T08:31:17.339Z,17.00
2022-09-15T08:33:49.832Z,17.40
2022-09-15T08:36:18.140Z,17.70
2022-09-15T08:38:46.422Z,17.90
2022-09-15T08:41:24.785Z,17.80
2022-09-15T08:44:00.796Z,17.80
2022-09-15T08:46:39.211Z,17.90
2022-09-15T08:49:11.553Z,18.10
2022-09-15T08:51:50.518Z,18.30
2022-09-15T08:54:27.419Z,18.40
2022-09-15T08:56:57.288Z,18.30
2022-09-15T08:59:31.620Z,18.50
2022-09-15T09:02:24.045Z,18.90
2022-09-15T09:05:07.684Z,19.50
2022-09-15T09:07:57.314Z,20.40
2022-09-15T09:10:46.684Z,21.00
2022-09-15T09:13:17.043Z,21.80
2022-09-15T09:15:50.315Z,22.20
2022-09-15T09:18:34.935Z,22.40
2022-09-15T09:21:21.646Z,22.60
2022-09-15T09:23:57.510Z,22.80
2022-09-15T09:26:25.892Z,22.80
2022-09-15T09:29:00.087Z,22.80
2022-09-15T09:31:28.872Z,23.00
2022-09-15T09:34:10.149Z,23.20
2022-09-15T09:36:37.594Z,23.20
2022-09-15T09:39:05.310Z,23.00
2022-09-15T09:41:36.746Z,22.60
2022-09-15T09:44:10.629Z,21.90
2022-09-15T09:46:38.743Z,21.30
2022-09-15T09:49:24.156Z,20.80
2022-09-15T09:51:52.958Z,20.40
2022-09-15T09:54:25.074Z,19.90
2022-09-15T09:56:54.544Z,19.90
2022-09-15T09:59:41.608Z,20.50
2022-09-15T10:02:11.965Z,21.10
2022-09-15T10:04:41.217Z,21.70
2022-09-15T10:07:09.328Z,22.40
2022-09-15T10:09:37.973Z,22.90
2022-09-15T10:12:07.459Z,23.30
2022-09-15T10:14:41.134Z,23.90
2022-09-15T10:17:18.473Z,24.40
2022-09-15T10:19:48.704Z,25.00
2022-09-15T10:22:23.594Z,25.50
2022-09-15T10:24:51.301Z,25.40
2022-09-15T10:27:31.104Z,25.10
2022-09-15T10:30:13.837Z,25.30
2022-09-15T10:32:43.275Z,25.60
2022-09-15T10:35:13.421Z,25.30
2022-09-15T10:37:55.996Z,25.10
2022-09-15T10:40:55.278Z,25.50
2022-09-15T10:43:40.567Z,25.80
2022-09-15T10:46:25.648Z,25.80
2022-09-15T10:49:25.572Z,25.10
2022-09-15T10:51:58.843Z,24.10
2022-09-15T10:54:32.229Z,23.30
2022-09-15T10:57:31.781Z,23.60
2022-09-15T11:00:09.006Z,24.10
2022-09-15T11:03:13.526Z,24.10
2022-09-15T11:05:54.335Z,24.00
2022-09-15T11:08:42.561Z,23.70
2022-09-15T11:11:22.663Z,23.10
2022-09-15T11:14:18.327Z,22.20
2022-09-15T11:17:09.932Z,21.60
2022-09-15T11:20:01.351Z,21.10
2022-09-15T11:22:44.106Z,21.10
2022-09-15T11:25:22.491Z,21.00
2022-09-15T11:27:54.382Z,21.20
2022-09-15T11:30:24.636Z,21.40
2022-09-15T11:32:58.098Z,21.60
2022-09-15T11:35:34.811Z,21.80
2022-09-15T11:38:40.559Z,21.80
2022-09-15T11:41:23.895Z,21.50
2022-09-15T11:44:03.891Z,21.20
2022-09-15T11:47:02.391Z,20.80
2022-09-15T11:49:33.863Z,20.40
2022-09-15T11:52:11.690Z,20.10
2022-09-15T11:54:48.759Z,19.90
2022-09-15T11:57:25.715Z,19.70
2022-09-15T11:59:57.813Z,19.50
2022-09-15T12:02:31.731Z,19.30
2022-09-15T12:05:11.143Z,19.10
2022-09-15T12:07:52.987Z,18.90
2022-09-15T12:10:26.407Z,18.90
2022-09-15T12:12:55.633Z,18.80
2022-09-15T12:15:27.682Z,18.90
2022-09-15T12:18:06.614Z,19.10
2022-09-15T12:21:02.250Z,19.30
2022-09-15T12:23:39.134Z,19.50
2022-09-15T12:26:17.538Z,19.60
2022-09-15T12:28:54.202Z,19.60
2022-09-15T12:31:30.859Z,19.60
2022-09-15T12:34:34.105Z,19.50
2022-09-15T12:37:11.139Z,19.30
2022-09-15T12:39:42.438Z,19.10
2022-09-15T12:42:31.507Z,19.00
2022-09-15T12:45:02.149Z,18.80
2022-09-15T12:47:32.591Z,18.70
2022-09-15T12:50:08.783Z,18.70
2022-09-15T12:52:46.194Z,18.90
2022-09-15T12:55:29.529Z,19.20
2022-09-15T12:58:00.253Z,19.50
2022-09-15T13:00:37.991Z,19.60
2022-09-15T13:03:38.223Z,19.70
2022-09-15T13:06:25.437Z,20.00
2022-09-15T13:08:52.980Z,20.70
2022-09-15T13:11:38.439Z,21.30
2022-09-15T13:14:14.654Z,22.50
2022-09-15T13:16:46.093Z,23.20
2022-09-15T13:19:44.355Z,23.20
2022-09-15T13:22:11.853Z,22.70
2022-09-15T13:24:48.639Z,21.90
2022-09-15T13:27:22.360Z,21.20
2022-09-15T13:29:57.910Z,20.60
2022-09-15T13:32:40.975Z,20.10
2022-09-15T13:35:39.198Z,19.60
2022-09-15T13:38:46.302Z,19.40
2022-09-15T13:41:40.100Z,19.70
2022-09-15T13:44:34.063Z,20.80
2022-09-15T13:47:07.738Z,21.40
2022-09-15T13:49:47.395Z,21.50
2022-09-15T13:52:22.245Z,21.50
2022-09-15T13:55:26.200Z,21.70
2022-09-15T14:00:57.369Z,22.40
2022-09-15T14:03:36.827Z,22.30
2022-09-15T14:06:12.244Z,22.40
2022-09-15T14:08:42.087Z,22.70
2022-09-15T14:11:15.470Z,22.80
2022-09-15T14:13:46.680Z,23.00
2022-09-15T14:16:36.333Z,23.10
2022-09-15T14:19:26.628Z,22.70
2022-09-15T14:21:58.305Z,22.00
2022-09-15T14:24:31.651Z,21.40
2022-09-15T14:27:02.921Z,20.90
2022-09-15T14:29:31.127Z,20.50
2022-09-15T14:32:03.776Z,20.20
2022-09-15T14:34:37.048Z,19.80
2022-09-15T14:37:27.494Z,19.60
2022-09-15T14:39:57.827Z,19.40
2022-09-15T14:42:32.560Z,20.00
2022-09-15T14:48:09.097Z,22.10
2022-09-15T14:50:37.795Z,22.90
2022-09-15T14:53:08.252Z,23.50
2022-09-15T14:56:00.597Z,24.00
2022-09-15T14:58:45.535Z,24.30
2022-09-15T15:01:32.722Z,24.10
2022-09-15T15:04:09.924Z,24.10
2022-09-15T15:06:48.871Z,23.80
2022-09-15T15:09:26.406Z,23.00
2022-09-15T15:12:00.458Z,22.10
2022-09-15T15:14:29.003Z,21.20
2022-09-15T15:17:02.784Z,20.40
2022-09-15T15:19:39.076Z,19.80
2022-09-15T15:22:08.608Z,19.40
2022-09-15T15:24:40.991Z,19.50
2022-09-15T15:27:40.879Z,20.20
2022-09-15T15:30:43.174Z,20.90
2022-09-15T15:33:48.939Z,21.90
2022-09-15T15:36:21.494Z,23.10
2022-09-15T15:38:57.991Z,23.60
2022-09-15T15:41:40.794Z,24.10
2022-09-15T15:44:26.734Z,24.40
2022-09-15T15:47:20.156Z,24.80
2022-09-15T15:50:09.376Z,25.00
2022-09-15T15:52:35.214Z,25.20
2022-09-15T15:55:02.760Z,25.10
2022-09-15T15:57:37.216Z,25.00
2022-09-15T16:00:21.132Z,24.90
2022-09-15T16:02:51.084Z,24.70
2022-09-15T16:05:20.650Z,24.50
2022-09-15T16:07:50.291Z,24.10
2022-09-15T16:10:21.587Z,23.50
2022-09-15T16:12:49.440Z,22.60
2022-09-15T16:15:20.419Z,22.00
2022-09-15T16:17:49.090Z,21.80
2022-09-15T16:20:17.204Z,21.40
2022-09-15T16:22:44.770Z,21.00
2022-09-15T16:25:30.990Z,20.60
2022-09-15T16:27:59.953Z,20.10
2022-09-15T16:30:27.835Z,19.90
2022-09-15T16:32:55.493Z,20.00
2022-09-15T16:35:43.747Z,20.30
2022-09-15T16:38:11.640Z,20.40
2022-09-15T16:40:39.125Z,20.30
2022-09-15T16:43:12.662Z,20.00
2022-09-15T16:45:41.040Z,19.70
2022-09-15T16:48:09.753Z,19.50
2022-09-15T16:50:40.195Z,19.30
2022-09-15T16:53:15.508Z,19.10
2022-09-15T16:55:48.585Z,18.90
2022-09-15T16:58:17.550Z,18.80
2022-09-15T17:00:48.345Z,18.80
2022-09-15T17:03:18.984Z,19.00
2022-09-15T17:05:49.762Z,19.30
2022-09-15T17:08:19.961Z,19.50
2022-09-15T17:10:49.287Z,19.60
2022-09-15T17:13:19.419Z,19.70
2022-09-15T17:15:48.813Z,19.70
2022-09-15T17:18:16.971Z,19.50
2022-09-15T17:20:45.955Z,19.20
2022-09-15T17:23:28.057Z,19.00
2022-09-15T17:25:59.640Z,18.70
2022-09-15T17:28:29.535Z,18.60
2022-09-15T17:31:21.535Z,18.50
2022-09-15T17:33:50.391Z,18.40
2022-09-15T17:36:18.469Z,18.30
2022-09-15T17:38:48.056Z,18.20
2022-09-15T17:41:20.028Z,17.90
2022-09-15T17:43:47.662Z,17.70
2022-09-15T17:46:15.387Z,17.60
2022-09-15T17:48:43.015Z,17.40
2022-09-15T17:51:17.221Z,17.10
2022-09-15T17:53:47.951Z,16.90
2022-09-15T17:56:15.703Z,16.60
2022-09-15T17:58:43.845Z,16.40
2022-09-15T18:01:15.290Z,16.20
2022-09-15T18:03:44.558Z,16.00
2022-09-15T18:06:12.735Z,15.90
2022-09-15T18:08:40.719Z,15.80
2022-09-15T18:11:08.363Z,15.70
2022-09-15T18:13:37.921Z,15.70
2022-09-15T18:16:07.794Z,15.60
2022-09-15T18:18:35.515Z,15.60
2022-09-15T18:21:09.778Z,15.60
2022-09-15T18:23:38.120Z,15.60
2022-09-15T18:26:07.463Z,15.50
2022-09-15T18:28:35.482Z,15.50
2022-09-15T18:31:04.032Z,15.50
2022-09-15T18:33:32.363Z,15.50
2022-09-15T18:36:00.155Z,15.40
2022-09-15T18:38:28.151Z,15.40
2022-09-15T18:40:57.123Z,15.30
2022-09-15T18:43:27.569Z,15.30
2022-09-15T18:45:59.761Z,15.20
2022-09-15T18:48:27.723Z,15.20
2022-09-15T18:50:55.703Z,15.20
2022-09-15T18:53:23.594Z,15.20
2022-09-15T18:55:51.967Z,15.10
2022-09-15T18:58:19.578Z,15.10
2022-09-15T19:00:47.278Z,15.10
2022-09-15T19:03:14.865Z,15.00
2022-09-15T19:05:42.646Z,15.00
2022-09-15T19:08:11.417Z,15.00
2022-09-15T19:10:41.589Z,14.90
2022-09-15T19:13:11.398Z,14.90
2022-09-15T19:15:39.891Z,14.90
2022-09-15T19:18:07.652Z,14.80
2022-09-15T19:20:35.367Z,14.80
2022-09-15T19:23:03.044Z,14.80
2022-09-15T19:25:30.566Z,14.60
2022-09-15T19:27:58.104Z,14.60
2022-09-15T19:30:25.754Z,14.50
2022-09-15T19:32:55.025Z,14.40
2022-09-15T19:35:23.095Z,14.40
2022-09-15T19:37:50.741Z,14.30
2022-09-15T19:40:19.579Z,14.30
2022-09-15T19:42:50.367Z,14.20
2022-09-15T19:45:18.496Z,14.20
2022-09-15T19:47:46.102Z,14.20
2022-09-15T19:50:13.670Z,14.10
2022-09-15T19:52:41.307Z,14.10
2022-09-15T19:55:10.186Z,14.00
2022-09-15T19:57:42.200Z,13.90
2022-09-15T20:00:12.541Z,13.90
2022-09-15T20:02:40.348Z,13.80
2022-09-15T20:05:09.367Z,13.70
2022-09-15T20:07:37.718Z,13.70
2022-09-15T20:10:06.330Z,13.60
2022-09-15T20:12:33.993Z,13.50
2022-09-15T20:15:01.792Z,13.50
2022-09-15T20:17:29.592Z,13.40
2022-09-15T20:19:57.240Z,13.40
2022-09-15T20:22:25.124Z,13.40
2022-09-15T20:24:52.883Z,13.30
2022-09-15T20:27:20.527Z,13.30
2022-09-15T20:29:48.319Z,13.20
2022-09-15T20:32:16.187Z,13.10
2022-09-15T20:34:43.690Z,13.10
2022-09-15T20:37:11.777Z,13.00
2022-09-15T20:39:39.415Z,13.00
2022-09-15T20:42:07.178Z,12.90
2022-09-15T20:44:35.840Z,12.80
2022-09-15T20:47:03.702Z,12.80
2022-09-15T20:49:31.341Z,12.80
2022-09-15T20:51:58.946Z,12.70
2022-09-15T20:54:26.976Z,12.60
2022-09-15T20:56:55.551Z,12.60
2022-09-15T20:59:23.186Z,12.60
2022-09-15T21:01:50.932Z,12.60
2022-09-15T21:04:19.622Z,12.60
2022-09-15T21:06:47.624Z,12.60
2022-09-15T21:09:15.250Z,12.60
2022-09-15T21:11:43.500Z,12.60
2022-09-15T21:14:13.711Z,12.60
2022-09-15T21:16:41.715Z,12.50
2022-09-15T21:19:10.287Z,12.50
2022-09-15T21:21:38.065Z,12.40
2022-09-15T21:24:08.223Z,12.40
2022-09-15T21:26:56.698Z,12.30
2022-09-15T21:29:24.855Z,12.30
2022-09-15T21:31:52.976Z,12.20
2022-09-15T21:34:20.665Z,12.10
2022-09-15T21:36:48.319Z,12.10
2022-09-15T21:39:16.000Z,12.00
2022-09-15T21:41:43.599Z,12.00
2022-09-15T21:44:12.040Z,12.00
2022-09-15T21:46:40.209Z,11.90
2022-09-15T21:49:08.963Z,11.90
2022-09-15T21:51:37.349Z,11.80
2022-09-15T21:54:05.221Z,11.80
2022-09-15T21:56:32.734Z,11.80
2022-09-15T21:59:03.041Z,11.80
2022-09-15T22:01:32.764Z,11.80
2022-09-15T22:04:06.403Z,11.80
2022-09-15T22:06:36.579Z,11.80
2022-09-15T22:09:07.001Z,11.80
2022-09-15T22:12:00.067Z,11.80
2022-09-15T22:14:27.627Z,11.80
2022-09-15T22:16:55.337Z,11.80
2022-09-15T22:19:23.018Z,11.80
2022-09-15T22:21:50.837Z,11.90
2022-09-15T22:24:19.572Z,11.80
2022-09-15T22:26:47.707Z,11.80
2022-09-15T22:29:15.611Z,11.80
2022-09-15T22:31:43.185Z,11.80
2022-09-15T22:34:10.876Z,11.80
2022-09-15T22:36:39.341Z,11.90
2022-09-15T22:39:07.012Z,11.90
2022-09-15T22:41:37.616Z,12.00
2022-09-15T22:44:06.870Z,12.10
2022-09-15T22:46:35.040Z,12.20
2022-09-15T22:49:03.004Z,12.20
2022-09-15T22:51:30.548Z,12.30
2022-09-15T22:53:58.516Z,12.40
2022-09-15T22:56:26.925Z,12.40
2022-09-15T22:58:56.467Z,12.50
2022-09-15T23:01:27.960Z,12.50
2022-09-15T23:03:57.712Z,12.40
2022-09-15T23:06:27.896Z,12.40
2022-09-15T23:08:58.148Z,12.40
2022-09-15T23:11:26.966Z,12.40
2022-09-15T23:13:55.762Z,12.50
2022-09-15T23:16:24.737Z,12.50
2022-09-15T23:18:53.456Z,12.50
2022-09-15T23:21:21.579Z,12.50
2022-09-15T23:23:49.428Z,12.50
2022-09-15T23:26:19.707Z,12.60
2022-09-15T23:28:49.236Z,12.60
2022-09-15T23:31:17.862Z,12.60
2022-09-15T23:33:46.684Z,12.60
2022-09-15T23:36:16.450Z,12.60
2022-09-15T23:38:45.413Z,12.60
2022-09-15T23:41:14.018Z,12.60
2022-09-15T23:43:41.732Z,12.60
2022-09-15T23:46:09.865Z,12.60
2022-09-15T23:48:37.749Z,12.60
2022-09-15T23:51:05.756Z,12.60
2022-09-15T23:53:34.763Z,12.60
2022-09-15T23:56:03.143Z,12.60
2022-09-15T23:58:31.284Z,12.60
